sensor_id;sensor_type;location;lat;lon;timestamp;pressure;altitude;pressure_sealevel;temperature;humidity
78643;BME280;67954;47.618;17.606;2023-02-22T00:00:12;100372.03;;;8.58;70.26
78643;BME280;67954;47.618;17.606;2023-02-22T00:00:49;100373.81;;;8.48;70.11
78643;BME280;67954;47.618;17.606;2023-02-22T00:01:22;100377.34;;;8.49;70.56
78643;BME280;67954;47.618;17.606;2023-02-22T00:02:04;100369.91;;;8.52;70.43
78643;BME280;67954;47.618;17.606;2023-02-22T00:02:42;100376.63;;;8.47;70.46
78643;BME280;67954;47.618;17.606;2023-02-22T00:03:17;100372.31;;;8.35;70.93
78643;BME280;67954;47.618;17.606;2023-02-22T00:03:54;100370.97;;;8.40;71.46
78643;BME280;67954;47.618;17.606;2023-02-22T00:04:24;100372.53;;;8.43;71.37
78643;BME280;67954;47.618;17.606;2023-02-22T00:04:57;100370.84;;;8.42;70.72
78643;BME280;67954;47.618;17.606;2023-02-22T00:05:28;100375.00;;;8.35;70.82
78643;BME280;67954;47.618;17.606;2023-02-22T00:06:02;100373.69;;;8.29;71.10
78643;BME280;67954;47.618;17.606;2023-02-22T00:06:34;100375.38;;;8.30;71.00
78643;BME280;67954;47.618;17.606;2023-02-22T00:07:05;100374.28;;;8.33;71.13
78643;BME280;67954;47.618;17.606;2023-02-22T00:07:36;100371.69;;;8.31;70.45
78643;BME280;67954;47.618;17.606;2023-02-22T00:08:07;100375.50;;;8.29;70.45
78643;BME280;67954;47.618;17.606;2023-02-22T00:08:40;100369.44;;;8.27;70.60
78643;BME280;67954;47.618;17.606;2023-02-22T00:09:11;100373.81;;;8.28;70.35
78643;BME280;67954;47.618;17.606;2023-02-22T00:09:43;100377.47;;;8.27;70.32
78643;BME280;67954;47.618;17.606;2023-02-22T00:10:16;100378.44;;;8.25;70.42
78643;BME280;67954;47.618;17.606;2023-02-22T00:10:49;100371.50;;;8.23;70.23
78643;BME280;67954;47.618;17.606;2023-02-22T00:11:21;100368.22;;;8.19;70.41
78643;BME280;67954;47.618;17.606;2023-02-22T00:11:52;100372.28;;;8.14;70.63
78643;BME280;67954;47.618;17.606;2023-02-22T00:12:23;100376.91;;;8.12;70.73
78643;BME280;67954;47.618;17.606;2023-02-22T00:12:58;100372.53;;;8.11;70.86
78643;BME280;67954;47.618;17.606;2023-02-22T00:13:31;100375.16;;;8.01;71.14
78643;BME280;67954;47.618;17.606;2023-02-22T00:14:04;100371.16;;;7.96;71.28
78643;BME280;67954;47.618;17.606;2023-02-22T00:14:36;100368.34;;;7.97;71.11
78643;BME280;67954;47.618;17.606;2023-02-22T00:15:08;100371.75;;;7.99;71.43
78643;BME280;67954;47.618;17.606;2023-02-22T00:15:39;100376.97;;;8.01;71.19
78643;BME280;67954;47.618;17.606;2023-02-22T00:16:13;100373.44;;;8.00;71.14
78643;BME280;67954;47.618;17.606;2023-02-22T00:16:44;100371.75;;;7.99;71.17
78643;BME280;67954;47.618;17.606;2023-02-22T00:17:15;100367.25;;;8.00;71.56
78643;BME280;67954;47.618;17.606;2023-02-22T00:17:47;100377.75;;;7.92;71.30
78643;BME280;67954;47.618;17.606;2023-02-22T00:18:18;100375.91;;;7.92;71.91
78643;BME280;67954;47.618;17.606;2023-02-22T00:18:51;100374.22;;;7.91;71.67
78643;BME280;67954;47.618;17.606;2023-02-22T00:19:21;100382.38;;;7.89;71.59
78643;BME280;67954;47.618;17.606;2023-02-22T00:19:52;100373.50;;;7.89;71.73
78643;BME280;67954;47.618;17.606;2023-02-22T00:20:23;100379.56;;;7.91;71.51
78643;BME280;67954;47.618;17.606;2023-02-22T00:20:55;100375.19;;;7.90;71.80
78643;BME280;67954;47.618;17.606;2023-02-22T00:21:29;100381.78;;;7.86;71.68
78643;BME280;67954;47.618;17.606;2023-02-22T00:22:00;100382.63;;;7.86;71.13
78643;BME280;67954;47.618;17.606;2023-02-22T00:22:31;100374.41;;;7.78;71.72
78643;BME280;67954;47.618;17.606;2023-02-22T00:23:04;100380.31;;;7.82;71.88
78643;BME280;67954;47.618;17.606;2023-02-22T00:23:39;100378.75;;;7.79;71.81
78643;BME280;67954;47.618;17.606;2023-02-22T00:24:12;100380.19;;;7.83;72.33
78643;BME280;67954;47.618;17.606;2023-02-22T00:24:53;100377.28;;;7.86;71.91
78643;BME280;67954;47.618;17.606;2023-02-22T00:25:24;100378.13;;;7.87;72.08
78643;BME280;67954;47.618;17.606;2023-02-22T00:25:57;100380.69;;;7.88;71.69
78643;BME280;67954;47.618;17.606;2023-02-22T00:26:32;100384.31;;;7.87;71.72
78643;BME280;67954;47.618;17.606;2023-02-22T00:27:03;100382.13;;;7.81;71.84
78643;BME280;67954;47.618;17.606;2023-02-22T00:27:34;100382.75;;;7.85;71.59
78643;BME280;67954;47.618;17.606;2023-02-22T00:28:05;100380.91;;;7.85;71.58
78643;BME280;67954;47.618;17.606;2023-02-22T00:28:37;100385.53;;;7.83;71.51
78643;BME280;67954;47.618;17.606;2023-02-22T00:29:10;100382.25;;;7.80;71.51
78643;BME280;67954;47.618;17.606;2023-02-22T00:29:43;100383.75;;;7.73;71.87
78643;BME280;67954;47.618;17.606;2023-02-22T00:30:18;100381.09;;;7.73;71.69
78643;BME280;67954;47.618;17.606;2023-02-22T00:30:50;100388.38;;;7.71;71.84
78643;BME280;67954;47.618;17.606;2023-02-22T00:31:21;100377.00;;;7.58;72.13
78643;BME280;67954;47.618;17.606;2023-02-22T00:31:53;100383.31;;;7.57;73.58
78643;BME280;67954;47.618;17.606;2023-02-22T00:32:24;100379.53;;;7.59;73.27
78643;BME280;67954;47.618;17.606;2023-02-22T00:32:55;100384.41;;;7.65;73.01
78643;BME280;67954;47.618;17.606;2023-02-22T00:33:26;100382.81;;;7.63;72.92
78643;BME280;67954;47.618;17.606;2023-02-22T00:33:58;100379.56;;;7.48;73.37
78643;BME280;67954;47.618;17.606;2023-02-22T00:34:30;100384.91;;;7.48;73.39
78643;BME280;67954;47.618;17.606;2023-02-22T00:35:01;100376.38;;;7.54;73.45
78643;BME280;67954;47.618;17.606;2023-02-22T00:35:34;100386.59;;;7.60;72.84
78643;BME280;67954;47.618;17.606;2023-02-22T00:36:07;100384.03;;;7.59;72.67
78643;BME280;67954;47.618;17.606;2023-02-22T00:36:38;100381.38;;;7.59;73.76
78643;BME280;67954;47.618;17.606;2023-02-22T00:37:09;100388.78;;;7.55;73.82
78643;BME280;67954;47.618;17.606;2023-02-22T00:37:41;100385.88;;;7.58;73.80
78643;BME280;67954;47.618;17.606;2023-02-22T00:38:13;100386.34;;;7.63;73.63
78643;BME280;67954;47.618;17.606;2023-02-22T00:38:44;100390.72;;;7.64;73.44
78643;BME280;67954;47.618;17.606;2023-02-22T00:39:16;100390.59;;;7.66;73.03
78643;BME280;67954;47.618;17.606;2023-02-22T00:39:48;100381.84;;;7.64;72.99
78643;BME280;67954;47.618;17.606;2023-02-22T00:40:21;100389.59;;;7.67;72.90
78643;BME280;67954;47.618;17.606;2023-02-22T00:40:53;100383.41;;;7.66;73.29
78643;BME280;67954;47.618;17.606;2023-02-22T00:41:25;100384.00;;;7.70;72.91
78643;BME280;67954;47.618;17.606;2023-02-22T00:41:56;100386.81;;;7.68;72.50
78643;BME280;67954;47.618;17.606;2023-02-22T00:42:28;100384.41;;;7.65;72.67
78643;BME280;67954;47.618;17.606;2023-02-22T00:43:00;100389.75;;;7.65;73.21
78643;BME280;67954;47.618;17.606;2023-02-22T00:43:31;100387.09;;;7.65;73.04
78643;BME280;67954;47.618;17.606;2023-02-22T00:44:03;100383.06;;;7.60;72.93
78643;BME280;67954;47.618;17.606;2023-02-22T00:44:36;100388.78;;;7.55;73.24
78643;BME280;67954;47.618;17.606;2023-02-22T00:45:07;100387.81;;;7.56;73.50
78643;BME280;67954;47.618;17.606;2023-02-22T00:45:39;100379.91;;;7.54;73.74
78643;BME280;67954;47.618;17.606;2023-02-22T00:46:12;100386.00;;;7.57;73.23
78643;BME280;67954;47.618;17.606;2023-02-22T00:46:43;100381.50;;;7.57;73.31
78643;BME280;67954;47.618;17.606;2023-02-22T00:47:15;100386.50;;;7.50;73.53
78643;BME280;67954;47.618;17.606;2023-02-22T00:47:46;100378.25;;;7.42;74.25
78643;BME280;67954;47.618;17.606;2023-02-22T00:48:17;100380.78;;;7.44;73.81
78643;BME280;67954;47.618;17.606;2023-02-22T00:48:47;100378.13;;;7.44;73.41
78643;BME280;67954;47.618;17.606;2023-02-22T00:49:19;100374.34;;;7.46;73.24
78643;BME280;67954;47.618;17.606;2023-02-22T00:49:50;100377.50;;;7.51;73.59
78643;BME280;67954;47.618;17.606;2023-02-22T00:50:23;100376.16;;;7.57;73.17
78643;BME280;67954;47.618;17.606;2023-02-22T00:50:54;100377.97;;;7.57;73.40
78643;BME280;67954;47.618;17.606;2023-02-22T00:51:26;100375.06;;;7.60;73.10
78643;BME280;67954;47.618;17.606;2023-02-22T00:51:58;100372.50;;;7.58;72.90
78643;BME280;67954;47.618;17.606;2023-02-22T00:52:29;100373.47;;;7.57;72.85
78643;BME280;67954;47.618;17.606;2023-02-22T00:53:02;100376.38;;;7.54;73.07
78643;BME280;67954;47.618;17.606;2023-02-22T00:53:33;100375.53;;;7.53;73.51
78643;BME280;67954;47.618;17.606;2023-02-22T00:54:04;100379.22;;;7.41;73.57
78643;BME280;67954;47.618;17.606;2023-02-22T00:54:36;100380.94;;;7.31;73.76
78643;BME280;67954;47.618;17.606;2023-02-22T00:55:08;100375.72;;;7.30;73.44
78643;BME280;67954;47.618;17.606;2023-02-22T00:55:44;100383.84;;;7.39;73.36
78643;BME280;67954;47.618;17.606;2023-02-22T00:56:16;100374.13;;;7.38;73.42
78643;BME280;67954;47.618;17.606;2023-02-22T00:56:46;100382.03;;;7.40;73.88
78643;BME280;67954;47.618;17.606;2023-02-22T00:57:20;100379.84;;;7.34;73.72
78643;BME280;67954;47.618;17.606;2023-02-22T00:57:52;100381.44;;;7.36;73.58
78643;BME280;67954;47.618;17.606;2023-02-22T00:58:22;100380.34;;;7.39;73.64
78643;BME280;67954;47.618;17.606;2023-02-22T00:58:53;100373.41;;;7.36;73.71
78643;BME280;67954;47.618;17.606;2023-02-22T00:59:25;100376.19;;;7.35;73.61
78643;BME280;67954;47.618;17.606;2023-02-22T00:59:58;100374.25;;;7.37;73.71
78643;BME280;67954;47.618;17.606;2023-02-22T01:00:31;100371.34;;;7.40;73.57
78643;BME280;67954;47.618;17.606;2023-02-22T01:01:02;100370.75;;;7.36;73.13
78643;BME280;67954;47.618;17.606;2023-02-22T01:01:34;100377.66;;;7.39;73.63
78643;BME280;67954;47.618;17.606;2023-02-22T01:02:04;100380.19;;;7.40;73.86
78643;BME280;67954;47.618;17.606;2023-02-22T01:02:35;100370.97;;;7.33;73.26
78643;BME280;67954;47.618;17.606;2023-02-22T01:03:08;100374.38;;;7.35;73.23
78643;BME280;67954;47.618;17.606;2023-02-22T01:03:39;100374.50;;;7.34;72.87
78643;BME280;67954;47.618;17.606;2023-02-22T01:04:10;100372.78;;;7.33;73.29
78643;BME280;67954;47.618;17.606;2023-02-22T01:04:41;100372.78;;;7.33;73.36
78643;BME280;67954;47.618;17.606;2023-02-22T01:05:13;100375.59;;;7.31;73.18
78643;BME280;67954;47.618;17.606;2023-02-22T01:05:46;100376.19;;;7.35;73.70
78643;BME280;67954;47.618;17.606;2023-02-22T01:06:17;100370.84;;;7.35;73.38
78643;BME280;67954;47.618;17.606;2023-02-22T01:06:48;100376.94;;;7.37;73.63
78643;BME280;67954;47.618;17.606;2023-02-22T01:07:19;100370.97;;;7.33;73.47
78643;BME280;67954;47.618;17.606;2023-02-22T01:07:50;100368.06;;;7.36;73.42
78643;BME280;67954;47.618;17.606;2023-02-22T01:08:21;100369.66;;;7.39;73.33
78643;BME280;67954;47.618;17.606;2023-02-22T01:08:54;100373.00;;;7.41;73.76
78643;BME280;67954;47.618;17.606;2023-02-22T01:09:26;100369.66;;;7.39;73.62
78643;BME280;67954;47.618;17.606;2023-02-22T01:09:57;100374.84;;;7.40;73.31
78643;BME280;67954;47.618;17.606;2023-02-22T01:10:29;100371.47;;;7.38;73.62
78643;BME280;67954;47.618;17.606;2023-02-22T01:11:01;100371.19;;;7.41;73.74
78643;BME280;67954;47.618;17.606;2023-02-22T01:11:32;100371.59;;;7.37;73.67
78643;BME280;67954;47.618;17.606;2023-02-22T01:12:04;100371.59;;;7.37;73.25
78643;BME280;67954;47.618;17.606;2023-02-22T01:12:37;100366.47;;;7.34;73.75
78643;BME280;67954;47.618;17.606;2023-02-22T01:13:09;100368.53;;;7.30;73.94
78643;BME280;67954;47.618;17.606;2023-02-22T01:13:41;100371.22;;;7.30;73.77
78643;BME280;67954;47.618;17.606;2023-02-22T01:14:14;100362.22;;;7.31;73.74
78643;BME280;67954;47.618;17.606;2023-02-22T01:14:45;100367.34;;;7.34;74.02
78643;BME280;67954;47.618;17.606;2023-02-22T01:15:21;100367.94;;;7.38;73.71
78643;BME280;67954;47.618;17.606;2023-02-22T01:15:52;100369.66;;;7.39;74.07
78643;BME280;67954;47.618;17.606;2023-02-22T01:16:22;100370.50;;;7.39;74.25
78643;BME280;67954;47.618;17.606;2023-02-22T01:16:55;100366.81;;;7.40;74.55
78643;BME280;67954;47.618;17.606;2023-02-22T01:17:26;100361.34;;;7.42;74.67
78643;BME280;67954;47.618;17.606;2023-02-22T01:17:57;100366.69;;;7.42;74.78
78643;BME280;67954;47.618;17.606;2023-02-22T01:18:30;100359.41;;;7.44;74.82
78643;BME280;67954;47.618;17.606;2023-02-22T01:19:01;100361.22;;;7.43;74.95
78643;BME280;67954;47.618;17.606;2023-02-22T01:19:31;100363.06;;;7.43;74.71
78643;BME280;67954;47.618;17.606;2023-02-22T01:20:05;100358.44;;;7.45;74.59
78643;BME280;67954;47.618;17.606;2023-02-22T01:20:39;100361.97;;;7.45;74.98
78643;BME280;67954;47.618;17.606;2023-02-22T01:21:10;100364.88;;;7.42;74.06
78643;BME280;67954;47.618;17.606;2023-02-22T01:21:41;100363.56;;;7.37;73.74
78643;BME280;67954;47.618;17.606;2023-02-22T01:22:13;100362.22;;;7.31;73.86
78643;BME280;67954;47.618;17.606;2023-02-22T01:22:46;100361.03;;;7.24;74.04
78643;BME280;67954;47.618;17.606;2023-02-22T01:23:17;100360.31;;;7.22;73.99
78643;BME280;67954;47.618;17.606;2023-02-22T01:23:49;100368.78;;;7.27;74.49
78643;BME280;67954;47.618;17.606;2023-02-22T01:24:20;100364.16;;;7.29;74.16
78643;BME280;67954;47.618;17.606;2023-02-22T01:24:51;100366.25;;;7.26;73.73
78643;BME280;67954;47.618;17.606;2023-02-22T01:25:26;100366.38;;;7.24;73.80
78643;BME280;67954;47.618;17.606;2023-02-22T01:25:57;100362.00;;;7.23;73.78
78643;BME280;67954;47.618;17.606;2023-02-22T01:26:28;100360.53;;;7.19;73.63
78643;BME280;67954;47.618;17.606;2023-02-22T01:27:00;100366.88;;;7.07;74.02
78643;BME280;67954;47.618;17.606;2023-02-22T01:27:32;100359.09;;;7.04;73.99
78643;BME280;67954;47.618;17.606;2023-02-22T01:28:05;100361.28;;;7.10;74.03
78643;BME280;67954;47.618;17.606;2023-02-22T01:28:37;100360.22;;;7.12;73.89
78643;BME280;67954;47.618;17.606;2023-02-22T01:29:11;100363.00;;;7.11;73.57
78643;BME280;67954;47.618;17.606;2023-02-22T01:29:44;100365.66;;;7.11;73.89
78643;BME280;67954;47.618;17.606;2023-02-22T01:30:21;100367.25;;;7.13;73.72
78643;BME280;67954;47.618;17.606;2023-02-22T01:30:52;100366.41;;;7.13;73.44
78643;BME280;67954;47.618;17.606;2023-02-22T01:31:25;100369.56;;;7.07;73.74
78643;BME280;67954;47.618;17.606;2023-02-22T01:31:57;100372.22;;;7.07;73.73
78643;BME280;67954;47.618;17.606;2023-02-22T01:32:28;100364.56;;;7.02;73.49
78643;BME280;67954;47.618;17.606;2023-02-22T01:33:00;100369.06;;;7.02;73.82
78643;BME280;67954;47.618;17.606;2023-02-22T01:33:32;100368.19;;;7.01;73.53
78643;BME280;67954;47.618;17.606;2023-02-22T01:34:03;100364.34;;;6.94;73.55
78643;BME280;67954;47.618;17.606;2023-02-22T01:34:34;100366.28;;;6.81;73.39
78643;BME280;67954;47.618;17.606;2023-02-22T01:35:10;100355.84;;;6.78;74.04
78643;BME280;67954;47.618;17.606;2023-02-22T01:35:43;100363.22;;;6.63;74.18
78643;BME280;67954;47.618;17.606;2023-02-22T01:36:15;100368.19;;;6.57;74.58
78643;BME280;67954;47.618;17.606;2023-02-22T01:36:48;100360.81;;;6.60;74.46
78643;BME280;67954;47.618;17.606;2023-02-22T01:37:19;100367.72;;;6.63;73.64
78643;BME280;67954;47.618;17.606;2023-02-22T01:37:50;100369.69;;;6.61;73.73
78643;BME280;67954;47.618;17.606;2023-02-22T01:38:22;100366.16;;;6.60;73.52
78643;BME280;67954;47.618;17.606;2023-02-22T01:38:52;100368.94;;;6.59;72.80
78643;BME280;67954;47.618;17.606;2023-02-22T01:39:23;100359.47;;;6.55;73.09
78643;BME280;67954;47.618;17.606;2023-02-22T01:39:55;100367.69;;;6.52;73.02
78643;BME280;67954;47.618;17.606;2023-02-22T01:40:30;100363.31;;;6.51;72.73
78643;BME280;67954;47.618;17.606;2023-02-22T01:41:03;100366.25;;;6.48;72.70
78643;BME280;67954;47.618;17.606;2023-02-22T01:41:35;100366.50;;;6.44;72.99
78643;BME280;67954;47.618;17.606;2023-02-22T01:42:06;100361.25;;;6.43;73.46
78643;BME280;67954;47.618;17.606;2023-02-22T01:42:39;100363.81;;;6.33;74.38
78643;BME280;67954;47.618;17.606;2023-02-22T01:43:16;100359.66;;;6.29;74.52
78643;BME280;67954;47.618;17.606;2023-02-22T01:43:49;100358.56;;;6.21;75.31
78643;BME280;67954;47.618;17.606;2023-02-22T01:44:26;100356.63;;;6.23;75.43
78643;BME280;67954;47.618;17.606;2023-02-22T01:46:05;100359.44;;;6.32;75.02
78643;BME280;67954;47.618;17.606;2023-02-22T01:46:38;100364.75;;;6.32;75.16
78643;BME280;67954;47.618;17.606;2023-02-22T01:47:08;100360.41;;;6.31;75.11
78643;BME280;67954;47.618;17.606;2023-02-22T01:47:40;100366.66;;;6.19;75.52
78643;BME280;67954;47.618;17.606;2023-02-22T01:48:16;100367.53;;;6.20;75.74
78643;BME280;67954;47.618;17.606;2023-02-22T01:48:53;100363.28;;;6.17;75.93
78643;BME280;67954;47.618;17.606;2023-02-22T01:49:30;100360.81;;;6.14;75.98
78643;BME280;67954;47.618;17.606;2023-02-22T01:50:03;100361.69;;;6.15;75.92
78643;BME280;67954;47.618;17.606;2023-02-22T01:50:37;100360.72;;;6.16;75.97
78643;BME280;67954;47.618;17.606;2023-02-22T01:51:12;100359.50;;;6.08;76.74
78643;BME280;67954;47.618;17.606;2023-02-22T01:51:48;100354.50;;;6.04;76.77
78643;BME280;67954;47.618;17.606;2023-02-22T01:52:20;100361.78;;;6.13;76.63
78643;BME280;67954;47.618;17.606;2023-02-22T01:52:52;100360.72;;;6.16;76.56
78643;BME280;67954;47.618;17.606;2023-02-22T01:53:27;100349.81;;;6.19;76.44
78643;BME280;67954;47.618;17.606;2023-02-22T01:54:04;100355.03;;;6.20;76.44
78643;BME280;67954;47.618;17.606;2023-02-22T01:54:40;100351.75;;;6.17;76.91
78643;BME280;67954;47.618;17.606;2023-02-22T01:55:12;100354.88;;;6.10;76.93
78643;BME280;67954;47.618;17.606;2023-02-22T01:55:45;100353.91;;;6.12;76.95
78643;BME280;67954;47.618;17.606;2023-02-22T01:56:17;100355.50;;;6.14;77.18
78643;BME280;67954;47.618;17.606;2023-02-22T01:56:55;100349.06;;;6.17;76.39
78643;BME280;67954;47.618;17.606;2023-02-22T01:57:34;100357.44;;;6.23;75.80
78643;BME280;67954;47.618;17.606;2023-02-22T01:58:07;100356.25;;;6.27;75.79
78643;BME280;67954;47.618;17.606;2023-02-22T01:58:43;100347.50;;;6.25;75.67
78643;BME280;67954;47.618;17.606;2023-02-22T01:59:18;100348.38;;;6.26;75.65
78643;BME280;67954;47.618;17.606;2023-02-22T01:59:54;100350.06;;;6.27;75.32
78643;BME280;67954;47.618;17.606;2023-02-22T02:00:26;100353.47;;;6.29;75.34
78643;BME280;67954;47.618;17.606;2023-02-22T02:00:58;100352.63;;;6.28;75.18
78643;BME280;67954;47.618;17.606;2023-02-22T02:01:32;100355.50;;;6.25;75.80
78643;BME280;67954;47.618;17.606;2023-02-22T02:02:05;100349.44;;;6.23;75.47
78643;BME280;67954;47.618;17.606;2023-02-22T02:02:39;100347.78;;;6.22;75.72
78643;BME280;67954;47.618;17.606;2023-02-22T02:03:15;100353.09;;;6.22;75.23
78643;BME280;67954;47.618;17.606;2023-02-22T02:03:49;100359.38;;;6.10;75.65
78643;BME280;67954;47.618;17.606;2023-02-22T02:04:23;100362.16;;;6.08;75.90
78643;BME280;67954;47.618;17.606;2023-02-22T02:04:56;100355.50;;;6.14;75.99
78643;BME280;67954;47.618;17.606;2023-02-22T02:05:28;100354.19;;;6.20;75.23
78643;BME280;67954;47.618;17.606;2023-02-22T02:06:05;100350.66;;;6.19;75.48
78643;BME280;67954;47.618;17.606;2023-02-22T02:06:37;100354.41;;;6.17;75.48
78643;BME280;67954;47.618;17.606;2023-02-22T02:07:14;100358.03;;;6.16;75.44
78643;BME280;67954;47.618;17.606;2023-02-22T02:07:46;100359.97;;;6.14;75.97
78643;BME280;67954;47.618;17.606;2023-02-22T02:08:26;100352.78;;;6.03;76.50
78643;BME280;67954;47.618;17.606;2023-02-22T02:09:04;100350.34;;;6.00;76.02
78643;BME280;67954;47.618;17.606;2023-02-22T02:09:46;100360.47;;;6.07;75.98
78643;BME280;67954;47.618;17.606;2023-02-22T02:10:21;100348.94;;;6.07;75.87
78643;BME280;67954;47.618;17.606;2023-02-22T02:10:54;100348.94;;;6.07;75.51
78643;BME280;67954;47.618;17.606;2023-02-22T02:11:28;100353.19;;;6.09;75.50
78643;BME280;67954;47.618;17.606;2023-02-22T02:12:00;100352.94;;;6.13;75.28
78643;BME280;67954;47.618;17.606;2023-02-22T02:12:34;100352.94;;;6.13;75.21
78643;BME280;67954;47.618;17.606;2023-02-22T02:13:05;100353.06;;;6.11;75.00
78643;BME280;67954;47.618;17.606;2023-02-22T02:13:37;100351.50;;;6.08;75.06
78643;BME280;67954;47.618;17.606;2023-02-22T02:14:09;100354.16;;;6.08;74.64
78643;BME280;67954;47.618;17.606;2023-02-22T02:14:42;100350.47;;;5.98;74.97
78643;BME280;67954;47.618;17.606;2023-02-22T02:15:20;100352.13;;;5.88;75.21
78643;BME280;67954;47.618;17.606;2023-02-22T02:15:53;100344.56;;;5.82;75.60
78643;BME280;67954;47.618;17.606;2023-02-22T02:16:37;100351.63;;;5.83;75.58
78643;BME280;67954;47.618;17.606;2023-02-22T02:17:12;100350.75;;;5.83;75.00
78643;BME280;67954;47.618;17.606;2023-02-22T02:17:46;100350.88;;;5.81;74.80
78643;BME280;67954;47.618;17.606;2023-02-22T02:18:17;100351.84;;;5.80;74.58
78643;BME280;67954;47.618;17.606;2023-02-22T02:18:48;100361.03;;;5.76;74.20
78643;BME280;67954;47.618;17.606;2023-02-22T02:19:30;100349.97;;;5.69;74.59
78643;BME280;67954;47.618;17.606;2023-02-22T02:20:12;100357.34;;;5.66;74.92
78643;BME280;67954;47.618;17.606;2023-02-22T02:21:03;100347.81;;;5.51;75.40
78643;BME280;67954;47.618;17.606;2023-02-22T02:22:05;100353.16;;;5.51;75.55
78643;BME280;67954;47.618;17.606;2023-02-22T02:22:46;100348.94;;;5.35;76.39
78643;BME280;67954;47.618;17.606;2023-02-22T02:26:19;100348.06;;;5.11;78.13
78643;BME280;67954;47.618;17.606;2023-02-22T02:27:07;100356.41;;;4.94;78.59
78643;BME280;67954;47.618;17.606;2023-02-22T02:28:00;100349.91;;;4.98;78.69
78643;BME280;67954;47.618;17.606;2023-02-22T02:30:24;100351.09;;;4.81;80.30
78643;BME280;67954;47.618;17.606;2023-02-22T02:31:20;100353.69;;;4.57;82.09
78643;BME280;67954;47.618;17.606;2023-02-22T02:32:20;100349.66;;;4.52;82.22
78643;BME280;67954;47.618;17.606;2023-02-22T02:32:55;100350.16;;;4.70;81.45
78643;BME280;67954;47.618;17.606;2023-02-22T02:33:32;100353.06;;;4.66;81.65
78643;BME280;67954;47.618;17.606;2023-02-22T02:34:14;100352.81;;;4.82;80.78
78643;BME280;67954;47.618;17.606;2023-02-22T02:34:56;100347.81;;;4.90;80.38
78643;BME280;67954;47.618;17.606;2023-02-22T02:35:38;100346.84;;;4.91;80.35
78643;BME280;67954;47.618;17.606;2023-02-22T02:36:17;100348.97;;;4.86;80.76
78643;BME280;67954;47.618;17.606;2023-02-22T02:36:56;100346.00;;;4.91;80.78
78643;BME280;67954;47.618;17.606;2023-02-22T02:37:35;100344.78;;;4.95;80.72
78643;BME280;67954;47.618;17.606;2023-02-22T02:38:20;100348.00;;;5.00;80.74
78643;BME280;67954;47.618;17.606;2023-02-22T02:38:56;100353.09;;;5.03;80.95
78643;BME280;67954;47.618;17.606;2023-02-22T02:39:34;100354.56;;;5.07;81.36
78643;BME280;67954;47.618;17.606;2023-02-22T02:40:17;100353.59;;;5.08;81.32
78643;BME280;67954;47.618;17.606;2023-02-22T02:40:57;100354.16;;;5.00;81.85
78643;BME280;67954;47.618;17.606;2023-02-22T02:41:35;100348.72;;;5.02;81.49
78643;BME280;67954;47.618;17.606;2023-02-22T02:42:14;100351.78;;;5.09;81.29
78643;BME280;67954;47.618;17.606;2023-02-22T02:42:54;100351.25;;;5.16;81.11
78643;BME280;67954;47.618;17.606;2023-02-22T02:43:33;100345.41;;;5.11;81.55
78643;BME280;67954;47.618;17.606;2023-02-22T02:44:13;100352.00;;;5.18;81.35
78643;BME280;67954;47.618;17.606;2023-02-22T02:44:48;100347.09;;;5.12;81.72
78643;BME280;67954;47.618;17.606;2023-02-22T02:45:25;100346.13;;;5.13;82.29
78643;BME280;67954;47.618;17.606;2023-02-22T02:46:05;100345.13;;;5.27;81.57
78643;BME280;67954;47.618;17.606;2023-02-22T02:46:45;100350.16;;;5.31;81.51
78643;BME280;67954;47.618;17.606;2023-02-22T02:47:22;100348.44;;;5.30;81.15
78643;BME280;67954;47.618;17.606;2023-02-22T02:47:58;100355.13;;;5.36;80.88
78643;BME280;67954;47.618;17.606;2023-02-22T02:48:33;100347.13;;;5.36;81.58
78643;BME280;67954;47.618;17.606;2023-02-22T02:49:07;100346.16;;;5.37;81.26
78643;BME280;67954;47.618;17.606;2023-02-22T02:49:47;100347.44;;;5.44;81.13
78643;BME280;67954;47.618;17.606;2023-02-22T02:50:24;100351.81;;;5.45;81.31
78643;BME280;67954;47.618;17.606;2023-02-22T02:50:59;100353.38;;;5.48;81.11
78643;BME280;67954;47.618;17.606;2023-02-22T02:51:35;100352.28;;;5.50;81.03
78643;BME280;67954;47.618;17.606;2023-02-22T02:52:09;100350.38;;;5.52;80.70
78643;BME280;67954;47.618;17.606;2023-02-22T02:52:44;100349.91;;;5.58;81.13
78643;BME280;67954;47.618;17.606;2023-02-22T02:53:18;100347.75;;;5.63;81.04
78643;BME280;67954;47.618;17.606;2023-02-22T02:53:52;100349.34;;;5.66;80.84
78643;BME280;67954;47.618;17.606;2023-02-22T02:54:24;100352.13;;;5.64;80.97
78643;BME280;67954;47.618;17.606;2023-02-22T02:54:57;100354.56;;;5.67;80.93
78643;BME280;67954;47.618;17.606;2023-02-22T02:55:30;100351.44;;;5.73;80.51
78643;BME280;67954;47.618;17.606;2023-02-22T02:56:02;100354.72;;;5.77;80.12
78643;BME280;67954;47.618;17.606;2023-02-22T02:56:33;100350.03;;;5.81;80.23
78643;BME280;67954;47.618;17.606;2023-02-22T02:57:05;100353.44;;;5.83;80.61
78643;BME280;67954;47.618;17.606;2023-02-22T02:57:36;100356.22;;;5.81;80.51
78643;BME280;67954;47.618;17.606;2023-02-22T02:58:16;100356.22;;;5.81;81.15
78643;BME280;67954;47.618;17.606;2023-02-22T02:58:50;100355.91;;;5.73;81.72
78643;BME280;67954;47.618;17.606;2023-02-22T02:59:26;100349.63;;;5.74;81.37
78643;BME280;67954;47.618;17.606;2023-02-22T02:59:59;100355.66;;;5.89;81.20
78643;BME280;67954;47.618;17.606;2023-02-22T03:00:33;100354.56;;;5.91;80.96
78643;BME280;67954;47.618;17.606;2023-02-22T03:01:12;100352.44;;;5.96;80.81
78643;BME280;67954;47.618;17.606;2023-02-22T03:01:56;100354.25;;;5.96;80.90
78643;BME280;67954;47.618;17.606;2023-02-22T03:02:42;100353.19;;;5.86;81.38
78643;BME280;67954;47.618;17.606;2023-02-22T03:03:33;100355.34;;;5.81;81.67